Time;durP1;ratioP1;P1;durP2;ratioP2;P2;SDS_P1;SDS_P2;PMS_P1;PMS_P2;Temp;Humidity;BMP_temperature;BMP_pressure;BME280_temperature;BME280_humidity;BME280_pressure;Samples;Min_cycle;Max_cycle;Signal;HPM_P1;HPM_P2
2022/05/12 00:05:18;;;;;;;13.50;12.07;;;15.40;99.90;;;;;;10425421;28;20238;-88
2022/05/12 00:10:41;;;;;;;14.45;11.95;;;15.30;99.90;;;;;;10425130;28;20202;-86
2022/05/12 00:16:02;;;;;;;11.68;10.45;;;15.20;99.90;;;;;;10438825;28;20556;-89
2022/05/12 00:21:24;;;;;;;14.77;10.30;;;15.00;99.90;;;;;;10438629;28;20219;-88
2022/05/12 00:26:46;;;;;;;16.92;10.93;;;15.00;99.90;;;;;;10423863;28;20208;-88
2022/05/12 00:32:08;;;;;;;11.95;10.05;;;15.00;99.90;;;;;;10437472;28;20237;-89
2022/05/12 00:37:29;;;;;;;15.32;10.35;;;14.90;99.90;;;;;;10424089;28;20273;-87
2022/05/12 00:42:58;;;;;;;14.20;11.20;;;14.90;99.90;;;;;;10423293;28;20233;-86
2022/05/12 00:48:20;;;;;;;13.60;10.77;;;14.80;99.90;;;;;;10427554;28;20196;-88
2022/05/12 00:53:42;;;;;;;11.82;10.57;;;14.70;99.90;;;;;;10423469;28;20577;-89
2022/05/12 00:59:10;;;;;;;15.15;10.63;;;14.70;99.90;;;;;;10422878;28;20261;-87
2022/05/12 01:04:31;;;;;;;15.82;10.77;;;14.60;99.90;;;;;;10421952;28;20229;-87
2022/05/12 01:09:54;;;;;;;16.50;11.82;;;14.50;99.90;;;;;;10436356;28;20190;-85
2022/05/12 01:15:17;;;;;;;12.88;11.27;;;14.40;99.90;;;;;;10408694;28;20244;-84
2022/05/12 01:20:39;;;;;;;12.88;10.68;;;14.40;99.90;;;;;;10422216;28;20233;-85
2022/05/12 01:26:07;;;;;;;12.68;10.52;;;14.30;99.90;;;;;;10408538;28;20200;-88
2022/05/12 01:31:29;;;;;;;16.63;12.85;;;14.20;99.90;;;;;;10421941;28;20200;-85
2022/05/12 01:36:51;;;;;;;15.63;12.32;;;14.10;99.90;;;;;;10436451;28;20226;-86
2022/05/12 01:42:13;;;;;;;18.75;12.90;;;14.00;99.90;;;;;;10408142;28;20542;-86
2022/05/12 01:47:38;;;;;;;19.40;12.05;;;14.00;99.90;;;;;;10435784;28;20196;-85
2022/05/12 01:52:59;;;;;;;17.70;12.77;;;14.00;99.90;;;;;;10435757;28;20198;-85
2022/05/12 01:58:22;;;;;;;15.85;11.85;;;14.10;99.90;;;;;;10407895;28;20391;-86
2022/05/12 02:03:43;;;;;;;18.33;12.75;;;14.10;99.90;;;;;;10408467;28;20254;-86
2022/05/12 02:09:06;;;;;;;14.90;12.82;;;14.10;99.90;;;;;;10421666;28;20282;-88
2022/05/12 02:14:27;;;;;;;17.05;13.68;;;14.10;99.90;;;;;;10422103;28;20381;-87
2022/05/12 02:19:48;;;;;;;19.17;14.45;;;14.10;99.90;;;;;;10443008;28;20224;-85
2022/05/12 02:25:10;;;;;;;17.35;14.63;;;14.00;99.90;;;;;;10428414;28;20280;-85
2022/05/12 02:30:34;;;;;;;20.13;16.42;;;13.90;99.90;;;;;;10442518;28;20206;-87
2022/05/12 02:35:56;;;;;;;21.10;16.13;;;13.80;99.90;;;;;;10428454;28;20238;-87
2022/05/12 02:41:17;;;;;;;19.20;15.52;;;13.70;99.90;;;;;;10428311;28;20230;-88
2022/05/12 02:46:38;;;;;;;19.98;16.80;;;13.70;99.90;;;;;;10427700;28;20211;-87
2022/05/12 02:51:59;;;;;;;20.90;15.80;;;13.70;99.90;;;;;;10441615;28;20198;-89
2022/05/12 02:57:21;;;;;;;26.02;17.00;;;13.60;99.90;;;;;;10427930;28;20519;-87
2022/05/12 03:02:43;;;;;;;25.80;20.52;;;13.60;99.90;;;;;;10428131;28;20227;-89
2022/05/12 03:08:04;;;;;;;26.38;18.58;;;13.60;99.90;;;;;;10417978;28;20509;-89
2022/05/12 03:13:26;;;;;;;29.55;21.45;;;13.70;99.90;;;;;;10416712;28;20426;-87
2022/05/12 03:18:51;;;;;;;28.63;20.92;;;13.60;99.90;;;;;;10427954;28;20212;-90
2022/05/12 03:24:13;;;;;;;26.77;19.88;;;13.60;99.90;;;;;;10413387;28;20282;-91
2022/05/12 03:29:35;;;;;;;26.33;21.83;;;13.70;99.90;;;;;;10439836;28;20564;-90
2022/05/12 03:34:56;;;;;;;24.33;19.02;;;13.60;99.90;;;;;;10412438;28;20234;-88
2022/05/12 03:40:18;;;;;;;22.90;19.05;;;13.60;99.90;;;;;;10412513;28;20519;-88
2022/05/12 03:45:39;;;;;;;24.52;19.88;;;13.70;99.90;;;;;;10425939;28;20199;-89
2022/05/12 03:51:01;;;;;;;23.65;18.27;;;13.70;99.90;;;;;;10440014;28;20206;-88
2022/05/12 03:56:22;;;;;;;24.33;19.00;;;13.80;99.90;;;;;;10425832;28;20203;-89
2022/05/12 04:01:44;;;;;;;23.42;19.58;;;13.70;99.90;;;;;;10435156;28;20249;-89
2022/05/12 04:07:06;;;;;;;21.58;18.25;;;13.70;99.90;;;;;;10439267;28;20217;-88
2022/05/12 04:12:27;;;;;;;22.50;17.38;;;13.70;99.90;;;;;;10425334;28;20246;-90
2022/05/12 04:18:04;;;;;;;21.27;16.05;;;13.70;99.90;;;;;;10424698;28;20209;-87
2022/05/12 04:23:25;;;;;;;20.38;16.20;;;13.70;99.90;;;;;;10424726;28;20237;-88
2022/05/12 04:28:49;;;;;;;19.58;14.93;;;13.60;99.90;;;;;;10437638;28;20201;-90
2022/05/12 04:39:50;;;;;;;16.85;15.05;;;13.70;99.90;;;;;;10423814;28;20386;-89
2022/05/12 04:45:12;;;;;;;21.05;17.25;;;13.70;99.90;;;;;;10423002;28;20271;-87
2022/05/12 04:50:36;;;;;;;18.20;16.23;;;13.70;99.90;;;;;;10423523;28;20198;-88
2022/05/12 04:55:58;;;;;;;16.48;14.75;;;13.80;99.90;;;;;;10423506;28;20274;-85
2022/05/12 05:01:19;;;;;;;19.75;16.80;;;13.90;99.90;;;;;;10422643;28;20256;-86
2022/05/12 05:06:41;;;;;;;18.85;16.42;;;14.00;99.90;;;;;;10422875;28;20207;-88
2022/05/12 05:12:03;;;;;;;18.80;16.80;;;14.20;99.90;;;;;;10422954;28;20197;-90
2022/05/12 05:17:26;;;;;;;23.27;19.05;;;14.30;99.90;;;;;;10436715;28;20219;-88
2022/05/12 05:22:48;;;;;;;24.30;19.52;;;14.30;99.90;;;;;;10408740;28;20234;-90
2022/05/12 05:28:11;;;;;;;23.90;19.13;;;14.30;99.90;;;;;;10422412;28;20485;-89
2022/05/12 05:33:32;;;;;;;23.55;20.88;;;14.30;99.90;;;;;;10422276;28;20231;-89
2022/05/12 05:38:53;;;;;;;21.77;19.48;;;14.30;99.90;;;;;;10421973;28;20201;-90
2022/05/12 05:44:15;;;;;;;22.17;19.65;;;14.40;99.90;;;;;;10415811;28;20213;-89
2022/05/12 05:49:37;;;;;;;17.60;14.95;;;14.40;99.90;;;;;;10400378;28;20204;-89
2022/05/12 05:54:58;;;;;;;17.23;13.98;;;14.50;99.90;;;;;;10408751;28;20219;-90
2022/05/12 06:00:20;;;;;;;14.63;12.20;;;14.50;99.90;;;;;;10440894;28;20226;-90
2022/05/12 06:05:42;;;;;;;12.25;11.05;;;14.50;99.90;;;;;;10430484;28;20345;-90
2022/05/12 06:11:04;;;;;;;12.38;10.13;;;14.50;99.90;;;;;;10429874;28;20204;-89
2022/05/12 06:16:25;;;;;;;12.52;9.65;;;14.40;99.90;;;;;;10443211;28;20193;-88
2022/05/12 06:21:49;;;;;;;11.70;9.40;;;14.40;99.90;;;;;;10443080;28;20225;-89
2022/05/12 06:27:11;;;;;;;12.48;9.10;;;14.40;99.90;;;;;;10428351;28;20207;-87
2022/05/12 06:32:32;;;;;;;13.25;8.93;;;14.60;99.90;;;;;;10427523;28;20246;-87
2022/05/12 06:37:54;;;;;;;13.52;9.75;;;14.80;99.90;;;;;;10428365;28;20272;-88
2022/05/12 06:43:15;;;;;;;14.63;12.63;;;15.20;99.90;;;;;;10419825;28;20230;-89
2022/05/12 06:48:37;;;;;;;17.20;13.80;;;15.30;99.90;;;;;;10441917;28;20199;-89
2022/05/12 06:53:58;;;;;;;20.00;15.77;;;15.00;99.90;;;;;;10414455;28;20199;-86
2022/05/12 06:59:19;;;;;;;20.90;15.27;;;14.80;99.90;;;;;;10441213;28;20208;-87
2022/05/12 07:04:41;;;;;;;16.73;14.23;;;14.70;99.90;;;;;;10426746;28;20270;-89
2022/05/12 07:10:04;;;;;;;18.10;9.15;;;14.50;99.90;;;;;;10413331;28;20200;-88
2022/05/12 07:15:27;;;;;;;9.45;6.05;;;14.30;99.90;;;;;;10413590;28;20203;-86
2022/05/12 07:26:35;;;;;;;7.43;4.55;;;13.60;99.90;;;;;;10444096;28;20216;-87
2022/05/12 07:31:56;;;;;;;7.35;4.97;;;13.40;99.90;;;;;;10386985;28;20314;-85
2022/05/12 07:37:18;;;;;;;7.78;5.10;;;13.20;99.90;;;;;;10415633;28;20254;-83
2022/05/12 07:42:39;;;;;;;6.00;3.25;;;13.10;99.90;;;;;;10423838;28;20229;-83
2022/05/12 07:48:01;;;;;;;5.82;3.65;;;13.00;99.90;;;;;;10427159;28;20194;-83
2022/05/12 07:53:22;;;;;;;6.65;3.53;;;13.80;99.90;;;;;;10420785;28;20199;-88
2022/05/12 07:58:44;;;;;;;6.72;2.58;;;14.90;99.90;;;;;;10421590;28;20206;-85
2022/05/12 08:04:06;;;;;;;3.67;1.23;;;16.10;34.50;;;;;;10435067;28;20258;-83
2022/05/12 08:09:27;;;;;;;1.30;1.20;;;17.40;2.40;;;;;;10404626;28;20620;-87
2022/05/12 08:14:49;;;;;;;2.08;1.38;;;18.00;1.00;;;;;;10434188;28;20425;-87
2022/05/12 08:20:12;;;;;;;1.25;0.90;;;18.20;1.00;;;;;;10421580;28;20338;-85
2022/05/12 08:25:33;;;;;;;4.80;1.00;;;18.00;1.00;;;;;;10395873;28;20211;-85
2022/05/12 08:30:55;;;;;;;1.40;0.70;;;17.00;1.00;;;;;;10409766;28;20207;-86
2022/05/12 08:36:16;;;;;;;1.95;0.90;;;16.00;1.00;;;;;;10399082;28;20238;-85
2022/05/12 08:41:51;;;;;;;1.30;0.60;;;15.50;1.00;;;;;;10426642;28;20235;-86
2022/05/12 08:47:16;;;;;;;1.38;0.90;;;15.40;1.00;;;;;;10405892;28;20336;-91
2022/05/12 08:52:46;;;;;;;0.70;0.70;;;15.60;1.00;;;;;;10418304;28;20289;-86
2022/05/12 08:58:15;;;;;;;2.47;1.10;;;15.60;1.00;;;;;;10412413;28;20204;-85
2022/05/12 09:03:47;;;;;;;1.00;0.80;;;15.70;1.00;;;;;;10377833;28;20232;-83
2022/05/12 09:09:37;;;;;;;1.88;0.90;;;15.80;1.00;;;;;;10414926;28;20198;-85
2022/05/12 09:15:06;;;;;;;1.42;1.08;;;15.80;1.00;;;;;;10380015;28;20452;-86
2022/05/12 09:20:31;;;;;;;2.13;0.88;;;15.80;1.00;;;;;;10410959;28;20548;-84
2022/05/12 09:25:52;;;;;;;1.55;0.88;;;15.80;1.00;;;;;;10400151;28;20557;-83
2022/05/12 09:31:15;;;;;;;1.70;0.85;;;16.10;1.00;;;;;;10385997;28;20222;-87
2022/05/12 09:36:38;;;;;;;1.02;0.35;;;17.50;1.00;;;;;;10357341;28;20211;-86
2022/05/12 09:42:03;;;;;;;1.95;0.60;;;18.00;1.00;;;;;;10345360;28;20282;-92
2022/05/12 09:47:26;;;;;;;1.52;0.52;;;17.30;1.00;;;;;;10342128;28;20514;-86
2022/05/12 09:52:54;;;;;;;1.48;0.70;;;16.80;1.00;;;;;;10419088;28;20204;-86
2022/05/12 09:58:16;;;;;;;3.35;0.60;;;17.10;1.00;;;;;;10403152;28;20198;-85
2022/05/12 10:09:29;;;;;;;1.73;0.88;;;17.30;1.00;;;;;;10430485;28;20509;-85
2022/05/12 10:14:57;;;;;;;2.20;0.82;;;17.50;99.90;;;;;;10415808;28;20290;-85
2022/05/12 10:20:23;;;;;;;5.40;0.90;;;18.40;99.90;;;;;;10417006;28;20213;-83
2022/05/12 10:26:10;;;;;;;3.42;0.90;;;19.40;1.00;;;;;;10416287;28;20207;-86
2022/05/12 10:31:54;;;;;;;5.88;1.10;;;19.50;1.00;;;;;;10410550;28;20283;-81
2022/05/12 10:37:25;;;;;;;4.13;1.08;;;19.10;1.00;;;;;;10432958;28;20220;-86
2022/05/12 10:42:49;;;;;;;2.60;1.00;;;20.00;1.00;;;;;;10422287;28;20220;-83
2022/05/12 10:48:20;;;;;;;9.82;1.52;;;20.40;1.00;;;;;;10437847;28;20197;-83
2022/05/12 10:54:01;;;;;;;5.03;2.30;;;20.10;1.00;;;;;;10423326;28;20235;-86
2022/05/12 10:59:47;;;;;;;3.55;1.00;;;20.70;1.00;;;;;;10428077;28;20208;-86
2022/05/12 11:05:26;;;;;;;4.78;0.85;;;20.10;1.00;;;;;;10418879;28;20231;-87
2022/05/12 11:10:59;;;;;;;6.40;0.70;;;20.00;1.00;;;;;;10433414;28;20192;-85
2022/05/12 11:16:29;;;;;;;4.57;0.80;;;20.10;1.00;;;;;;10422084;28;20499;-88
2022/05/12 11:22:10;;;;;;;6.05;1.20;;;20.10;1.00;;;;;;10411969;28;20274;-84
2022/05/12 11:29:41;;;;;;;2.83;0.65;;;20.00;1.00;;;;;;10416524;28;20200;-83
2022/05/12 11:33:39;;;;;;;83.35;4.80;;;20.30;99.90;;;;;;10418772;28;20335;-82
2022/05/12 11:39:22;;;;;;;8.65;1.50;;;20.40;99.90;;;;;;10435800;28;20422;-85
2022/05/12 11:44:46;;;;;;;4.75;0.85;;;20.30;99.90;;;;;;10406954;28;20207;-86
2022/05/12 11:50:26;;;;;;;3.50;1.02;;;20.00;1.00;;;;;;10406352;28;20211;-84
2022/05/12 11:56:05;;;;;;;3.40;1.00;;;20.30;1.00;;;;;;10421607;28;20208;-80
2022/05/12 12:01:27;;;;;;;3.80;1.33;;;20.40;1.00;;;;;;10423133;28;20212;-86
2022/05/12 12:06:53;;;;;;;2.70;0.90;;;20.60;99.90;;;;;;10415841;28;20188;-82
2022/05/12 12:12:39;;;;;;;3.88;1.15;;;20.10;1.00;;;;;;10423414;28;20192;-86
2022/05/12 12:18:22;;;;;;;8.57;1.15;;;19.70;1.00;;;;;;10433231;28;20268;-85
2022/05/12 12:24:08;;;;;;;2.05;0.80;;;19.00;1.00;;;;;;10421393;28;20251;-88
2022/05/12 12:29:43;;;;;;;2.03;0.85;;;18.80;99.90;;;;;;10405086;28;20207;-86
2022/05/12 12:35:28;;;;;;;9.70;0.95;;;19.20;99.90;;;;;;10444462;28;20581;-86
2022/05/12 12:40:52;;;;;;;2.63;0.85;;;18.90;1.00;;;;;;10393859;28;20221;-90
2022/05/12 12:46:21;;;;;;;3.78;1.20;;;18.80;1.00;;;;;;10411644;28;20391;-86
2022/05/12 12:51:43;;;;;;;6.88;1.50;;;19.00;1.00;;;;;;10391199;28;20204;-88
2022/05/12 12:57:16;;;;;;;4.63;1.10;;;19.00;99.90;;;;;;10386991;28;20498;-83
2022/05/12 13:02:45;;;;;;;5.47;1.05;;;19.00;99.90;;;;;;10427411;28;20215;-85
2022/05/12 13:08:19;;;;;;;5.63;1.20;;;19.00;22.80;;;;;;10432768;28;20193;-91
2022/05/12 13:13:52;;;;;;;8.00;1.00;;;19.30;1.00;;;;;;10403228;28;20208;-87
2022/05/12 13:19:13;;;;;;;4.63;0.90;;;19.30;1.00;;;;;;10402230;28;20238;-85
2022/05/12 13:24:38;;;;;;;3.80;1.23;;;19.10;99.90;;;;;;10424731;28;20265;-89
2022/05/12 13:29:59;;;;;;;6.03;1.77;;;18.90;7.70;;;;;;10410472;28;20197;-82
2022/05/12 13:35:26;;;;;;;9.38;0.90;;;18.80;1.00;;;;;;10415771;28;20244;-81
2022/05/12 13:41:15;;;;;;;2.75;1.20;;;18.90;1.00;;;;;;10414364;28;20204;-86
2022/05/12 13:46:38;;;;;;;5.95;1.02;;;19.10;1.00;;;;;;10415909;28;20216;-88
2022/05/12 13:52:24;;;;;;;40.22;3.78;;;19.30;23.60;;;;;;10400036;28;20201;-87
2022/05/12 13:58:12;;;;;;;10.32;1.30;;;19.50;19.10;;;;;;10409252;28;20200;-87
2022/05/12 14:03:34;;;;;;;27.27;1.88;;;19.30;99.90;;;;;;10400579;28;20220;-89
2022/05/12 14:09:07;;;;;;;6.55;1.92;;;19.20;1.00;;;;;;10409900;28;20268;-86
2022/05/12 14:20:13;;;;;;;3.42;0.90;;;18.60;82.90;;;;;;10424253;28;20204;-88
2022/05/12 14:25:36;;;;;;;5.38;1.17;;;18.40;98.00;;;;;;10438694;28;20412;-86
2022/05/12 14:30:57;;;;;;;6.63;1.50;;;18.40;99.90;;;;;;10400784;28;20215;-87
2022/05/12 14:36:19;;;;;;;9.65;1.48;;;18.20;99.90;;;;;;10423203;28;20611;-89
2022/05/12 14:41:40;;;;;;;5.63;1.58;;;18.00;99.90;;;;;;10382548;28;20280;-88
2022/05/12 14:47:07;;;;;;;4.45;1.00;;;17.90;1.00;;;;;;10409510;28;20421;-85
2022/05/12 14:52:29;;;;;;;3.80;0.95;;;18.10;1.00;;;;;;10423189;28;20807;-86
2022/05/12 14:57:51;;;;;;;6.00;1.15;;;18.10;1.00;;;;;;10422046;28;20200;-88
2022/05/12 15:03:13;;;;;;;6.85;1.88;;;18.20;1.00;;;;;;10403295;28;20484;-87
2022/05/12 15:08:35;;;;;;;6.55;1.23;;;18.10;1.00;;;;;;10426627;28;20203;-85
2022/05/12 15:13:56;;;;;;;6.20;1.35;;;17.90;1.00;;;;;;10438756;28;20495;-81
2022/05/12 15:19:18;;;;;;;6.00;1.45;;;17.60;99.90;;;;;;10440465;28;20274;-82
2022/05/12 15:24:39;;;;;;;4.35;1.42;;;17.50;1.00;;;;;;10425026;28;20229;-81
2022/05/12 15:30:04;;;;;;;3.50;1.35;;;17.50;1.00;;;;;;10436440;28;20582;-81
2022/05/12 15:35:25;;;;;;;1.92;0.88;;;17.50;1.00;;;;;;10421874;28;20239;-81
2022/05/12 15:40:47;;;;;;;4.65;1.65;;;17.30;99.90;;;;;;10424056;28;20235;-82
2022/05/12 15:46:15;;;;;;;5.00;1.77;;;17.20;1.00;;;;;;10411965;28;20246;-81
2022/05/12 15:51:37;;;;;;;3.92;1.00;;;17.30;1.00;;;;;;10425279;28;20204;-84
2022/05/12 15:56:58;;;;;;;4.55;1.00;;;17.10;1.00;;;;;;10424376;28;20210;-82
2022/05/12 16:02:22;;;;;;;5.15;1.13;;;17.00;1.00;;;;;;10439064;28;20219;-83
2022/05/12 16:07:45;;;;;;;5.90;1.42;;;16.90;1.00;;;;;;10425179;28;20544;-84
2022/05/12 16:13:06;;;;;;;2.78;1.00;;;16.70;1.00;;;;;;10424194;28;20487;-83
2022/05/12 16:18:28;;;;;;;4.45;1.27;;;16.70;99.90;;;;;;10411072;28;20201;-82
2022/05/12 16:23:50;;;;;;;3.78;1.30;;;16.60;16.00;;;;;;10438004;28;20438;-81
2022/05/12 16:29:16;;;;;;;5.63;1.00;;;16.50;6.20;;;;;;10423076;28;20199;-81
2022/05/12 16:34:38;;;;;;;7.00;1.20;;;16.50;22.30;;;;;;10382473;28;20314;-81
2022/05/12 16:39:59;;;;;;;3.72;1.08;;;16.50;31.10;;;;;;10382265;28;20429;-82
2022/05/12 16:45:20;;;;;;;9.65;1.45;;;16.40;1.00;;;;;;10382053;28;20442;-81
2022/05/12 16:50:47;;;;;;;4.55;1.50;;;16.30;1.00;;;;;;10381901;28;20199;-84
2022/05/12 16:56:09;;;;;;;3.58;1.30;;;16.30;1.00;;;;;;10407705;28;20277;-82
2022/05/12 17:01:30;;;;;;;5.75;1.20;;;16.30;1.00;;;;;;10422402;28;20575;-82
2022/05/12 17:06:57;;;;;;;3.92;1.00;;;16.20;1.00;;;;;;10408443;28;20198;-82
2022/05/12 17:12:18;;;;;;;3.55;1.00;;;16.10;1.00;;;;;;10422457;28;20214;-82
2022/05/12 17:17:40;;;;;;;3.03;1.25;;;16.00;1.00;;;;;;10436533;28;20489;-82
2022/05/12 17:23:01;;;;;;;5.18;1.30;;;15.90;48.30;;;;;;10436378;28;20298;-84
2022/05/12 17:28:23;;;;;;;2.22;1.02;;;15.80;1.00;;;;;;10407867;28;20201;-85
2022/05/12 17:33:45;;;;;;;4.18;1.38;;;15.70;99.90;;;;;;10418329;28;20258;-81
2022/05/12 17:39:06;;;;;;;3.60;1.38;;;15.70;1.00;;;;;;10421764;28;20221;-84
2022/05/12 17:44:31;;;;;;;5.90;1.58;;;15.50;1.00;;;;;;10436063;28;20230;-82
2022/05/12 17:49:53;;;;;;;1.80;1.23;;;15.40;1.00;;;;;;10415543;28;20197;-85
2022/05/12 17:55:15;;;;;;;3.85;1.55;;;15.30;1.00;;;;;;10443819;28;20494;-85
2022/05/12 18:00:37;;;;;;;4.22;1.20;;;15.30;1.00;;;;;;10443562;28;20193;-81
2022/05/12 18:05:59;;;;;;;10.30;2.17;;;15.20;1.00;;;;;;10428885;28;20205;-82
2022/05/12 18:11:22;;;;;;;3.83;1.08;;;15.00;99.90;;;;;;10444201;28;20196;-81
2022/05/12 18:16:43;;;;;;;6.35;1.27;;;14.90;1.00;;;;;;10429313;28;20214;-84
2022/05/12 18:22:04;;;;;;;4.55;1.20;;;14.80;99.90;;;;;;10442184;28;20302;-82
2022/05/12 18:27:26;;;;;;;9.93;1.42;;;14.70;99.90;;;;;;10442821;28;20402;-82
2022/05/12 18:32:47;;;;;;;2.55;1.00;;;14.60;1.00;;;;;;10427757;28;20255;-83
2022/05/12 18:38:15;;;;;;;4.25;1.67;;;14.60;80.50;;;;;;10428306;28;20226;-82
2022/05/12 18:43:37;;;;;;;5.93;1.80;;;14.50;49.30;;;;;;10442035;28;20407;-81
2022/05/12 18:48:58;;;;;;;3.45;1.00;;;14.30;1.00;;;;;;10440959;28;20511;-83
2022/05/12 18:54:20;;;;;;;3.05;1.00;;;14.20;1.00;;;;;;10441868;28;20260;-83
2022/05/12 18:59:41;;;;;;;1.52;0.75;;;14.20;99.90;;;;;;10441687;28;20210;-83
2022/05/12 19:05:04;;;;;;;2.92;1.20;;;14.20;99.90;;;;;;10413530;28;20573;-84
2022/05/12 19:10:26;;;;;;;3.55;1.27;;;14.10;99.90;;;;;;10427217;28;20248;-83
2022/05/12 19:15:47;;;;;;;2.20;1.05;;;14.00;99.90;;;;;;10426660;28;20219;-82
2022/05/12 19:21:09;;;;;;;4.72;1.40;;;14.00;99.90;;;;;;10426200;28;20342;-84
2022/05/12 19:26:30;;;;;;;2.53;1.20;;;13.90;99.90;;;;;;10441004;28;20238;-84
2022/05/12 19:31:52;;;;;;;2.78;1.30;;;13.80;99.90;;;;;;10411534;28;20333;-86
2022/05/12 19:37:14;;;;;;;1.77;1.00;;;13.80;1.00;;;;;;10412403;28;20232;-86
2022/05/12 19:42:35;;;;;;;2.95;0.88;;;13.70;1.00;;;;;;10412137;28;20552;-86
2022/05/12 19:47:58;;;;;;;2.80;1.08;;;13.60;99.90;;;;;;10439416;28;20195;-84
2022/05/12 19:53:25;;;;;;;4.88;1.00;;;13.60;1.00;;;;;;10439244;28;20269;-83
2022/05/12 19:58:46;;;;;;;3.00;1.10;;;13.50;99.90;;;;;;10425467;28;20191;-82
2022/05/12 20:04:08;;;;;;;3.97;1.23;;;13.40;1.00;;;;;;10438828;28;20227;-86
2022/05/12 20:09:30;;;;;;;2.95;1.15;;;13.40;1.00;;;;;;10439236;28;20205;-83
2022/05/12 20:14:51;;;;;;;2.63;1.10;;;13.30;1.00;;;;;;10439034;28;20199;-84
2022/05/12 20:20:17;;;;;;;2.22;1.10;;;13.30;1.00;;;;;;10424394;28;20195;-82
2022/05/12 20:25:38;;;;;;;3.17;1.10;;;13.20;1.00;;;;;;10423786;28;20229;-80
2022/05/12 20:31:01;;;;;;;6.53;1.30;;;13.20;20.60;;;;;;10422774;28;20248;-84
2022/05/12 20:36:23;;;;;;;4.20;1.27;;;13.10;99.90;;;;;;10396746;28;20398;-82
2022/05/12 20:41:45;;;;;;;2.58;0.98;;;13.10;1.00;;;;;;10382870;28;20281;-82
2022/05/12 20:47:07;;;;;;;2.80;1.55;;;13.00;1.00;;;;;;10388241;28;20196;-82
2022/05/12 20:52:30;;;;;;;4.13;1.88;;;13.00;1.00;;;;;;10409134;28;20228;-82
2022/05/12 20:57:51;;;;;;;8.60;3.53;;;13.00;1.00;;;;;;10437981;28;20188;-82
2022/05/12 21:03:13;;;;;;;13.20;5.43;;;12.90;1.00;;;;;;10436849;28;20532;-84
2022/05/12 21:08:35;;;;;;;14.77;5.93;;;12.70;33.10;;;;;;10438021;28;20201;-86
2022/05/12 21:13:57;;;;;;;12.25;5.07;;;12.70;99.90;;;;;;10437102;28;20189;-86
2022/05/12 21:19:18;;;;;;;10.40;4.10;;;12.60;99.90;;;;;;10436787;28;20223;-86
2022/05/12 21:24:39;;;;;;;6.90;3.67;;;12.50;99.90;;;;;;10436177;28;20410;-86
2022/05/12 21:30:02;;;;;;;7.95;3.05;;;12.40;99.90;;;;;;10435998;28;20229;-85
2022/05/12 21:35:25;;;;;;;6.22;2.90;;;12.40;99.90;;;;;;10422089;28;20261;-85
2022/05/12 21:40:49;;;;;;;7.00;3.22;;;12.40;99.90;;;;;;10408842;28;20253;-85
2022/05/12 21:46:10;;;;;;;7.43;3.78;;;12.30;1.00;;;;;;10422504;28;20282;-86
2022/05/12 21:51:32;;;;;;;9.02;4.20;;;12.30;1.00;;;;;;10436258;28;20190;-84
2022/05/12 22:01:27;;;;;;;16.75;6.03;;;12.30;1.00;;;;;;10436110;28;20199;-86
2022/05/12 22:02:34;;;;;;;8.13;4.20;;;12.20;1.00;;;;;;10421956;28;20252;-86
2022/05/12 22:07:55;;;;;;;7.05;3.75;;;12.10;1.00;;;;;;10422030;28;20197;-85
2022/05/12 22:13:17;;;;;;;13.15;6.25;;;12.10;1.00;;;;;;10421810;28;20201;-84
2022/05/12 22:18:40;;;;;;;9.50;5.18;;;12.00;1.00;;;;;;10435281;28;20185;-83
2022/05/12 22:24:03;;;;;;;8.27;3.97;;;12.00;1.00;;;;;;10421090;28;20229;-83
2022/05/12 22:29:24;;;;;;;9.77;4.32;;;11.90;1.00;;;;;;10435382;28;20192;-85
2022/05/12 22:34:45;;;;;;;8.80;3.03;;;11.80;1.00;;;;;;10451327;28;20233;-84
2022/05/12 22:40:07;;;;;;;6.30;2.75;;;11.70;1.00;;;;;;10428850;28;20199;-84
2022/05/12 22:45:30;;;;;;;8.48;3.83;;;11.60;1.00;;;;;;10442553;28;20292;-84
2022/05/12 22:50:51;;;;;;;9.30;4.10;;;11.60;1.00;;;;;;10443176;28;20553;-85
2022/05/12 22:56:14;;;;;;;6.80;2.53;;;11.50;1.00;;;;;;10428282;28;20223;-86
2022/05/12 23:01:36;;;;;;;6.27;2.57;;;11.50;1.00;;;;;;10427746;28;20216;-85
2022/05/12 23:06:57;;;;;;;6.33;2.70;;;11.50;1.00;;;;;;10441640;28;20240;-85
2022/05/12 23:12:19;;;;;;;7.13;2.70;;;11.40;1.00;;;;;;10427749;28;20192;-85
2022/05/12 23:17:40;;;;;;;7.90;3.10;;;11.40;1.00;;;;;;10442178;28;20196;-85
2022/05/12 23:23:01;;;;;;;5.93;2.70;;;11.40;1.00;;;;;;10413069;28;20302;-86
2022/05/12 23:28:23;;;;;;;2.70;2.08;;;11.50;1.00;;;;;;10426888;28;20275;-86
2022/05/12 23:33:44;;;;;;;3.25;1.85;;;11.60;1.00;;;;;;10439033;28;20270;-80
2022/05/12 23:39:07;;;;;;;5.30;1.92;;;11.70;1.00;;;;;;10425970;28;20186;-82
2022/05/12 23:44:29;;;;;;;4.73;2.20;;;11.70;1.00;;;;;;10439993;28;20258;-82
2022/05/12 23:49:50;;;;;;;4.73;2.03;;;11.80;1.00;;;;;;10439987;28;20268;-82
2022/05/12 23:55:11;;;;;;;6.00;1.90;;;11.90;1.00;;;;;;10425300;28;20208;-82
